Time;durP1;ratioP1;P1;durP2;ratioP2;P2;SDS_P1;SDS_P2;PMS_P1;PMS_P2;Temp;Humidity;BMP_temperature;BMP_pressure;BME280_temperature;BME280_humidity;BME280_pressure;Samples;Min_cycle;Max_cycle;Signal;HPM_P1;HPM_P2
2023/01/16 00:00:01;;;;;;;4.00;1.20;;;;;;;;;;6269740;28;20313;-84
2023/01/16 00:03:13;;;;;;;4.17;1.03;;;;;;;;;;6288944;28;20460;-83
2023/01/16 00:06:18;;;;;;;2.00;1.40;;;;;;;;;;6288697;28;20300;-83
2023/01/16 00:09:25;;;;;;;2.10;1.20;;;;;;;;;;6292820;28;20290;-84
2023/01/16 00:12:31;;;;;;;3.43;1.10;;;;;;;;;;6288441;28;20273;-83
2023/01/16 00:15:36;;;;;;;1.23;1.13;;;;;;;;;;6287812;28;20296;-83
2023/01/16 00:18:42;;;;;;;0.80;0.80;;;;;;;;;;6288812;28;20436;-83
2023/01/16 00:21:47;;;;;;;0.97;0.80;;;;;;;;;;6263100;28;20490;-82
2023/01/16 00:24:58;;;;;;;1.53;1.13;;;;;;;;;;6279302;28;20239;-81
2023/01/16 00:28:03;;;;;;;2.03;1.20;;;;;;;;;;6280315;28;20229;-80
2023/01/16 00:31:11;;;;;;;3.67;0.90;;;;;;;;;;6278592;28;20243;-82
2023/01/16 00:34:16;;;;;;;0.97;0.97;;;;;;;;;;6266992;28;20283;-82
2023/01/16 00:37:21;;;;;;;1.90;1.00;;;;;;;;;;6249301;28;20542;-81
2023/01/16 00:40:28;;;;;;;2.47;1.00;;;;;;;;;;6245906;28;20471;-82
2023/01/16 00:43:33;;;;;;;0.87;0.87;;;;;;;;;;6263398;28;20570;-82
2023/01/16 00:46:38;;;;;;;2.43;1.00;;;;;;;;;;6262721;28;20562;-82
2023/01/16 00:49:43;;;;;;;0.70;0.70;;;;;;;;;;6262350;28;20291;-81
2023/01/16 00:52:49;;;;;;;0.67;0.67;;;;;;;;;;6262326;28;20473;-81
2023/01/16 00:55:55;;;;;;;0.83;0.83;;;;;;;;;;6262228;28;20486;-81
2023/01/16 00:59:00;;;;;;;0.83;0.83;;;;;;;;;;6262734;28;20583;-81
2023/01/16 01:02:05;;;;;;;0.87;0.83;;;;;;;;;;6259736;28;20600;-81
2023/01/16 01:05:11;;;;;;;1.50;0.80;;;;;;;;;;6262462;28;20290;-81
2023/01/16 01:08:19;;;;;;;1.60;0.73;;;;;;;;;;6261865;28;20463;-81
2023/01/16 01:11:25;;;;;;;1.10;0.60;;;;;;;;;;6262040;28;20302;-82
2023/01/16 01:14:32;;;;;;;2.50;1.20;;;;;;;;;;6260863;28;20299;-82
2023/01/16 01:17:37;;;;;;;0.90;0.90;;;;;;;;;;6262426;28;20365;-81
2023/01/16 01:20:42;;;;;;;3.57;0.90;;;;;;;;;;6262470;28;20311;-82
2023/01/16 01:23:48;;;;;;;0.90;0.90;;;;;;;;;;6262171;28;20301;-82
2023/01/16 01:26:54;;;;;;;0.80;0.80;;;;;;;;;;6261495;28;20313;-82
2023/01/16 01:30:00;;;;;;;0.70;0.70;;;;;;;;;;6260251;28;20489;-82
2023/01/16 01:33:05;;;;;;;0.70;0.70;;;;;;;;;;6261876;28;20273;-81
2023/01/16 01:36:14;;;;;;;3.10;0.90;;;;;;;;;;6260037;28;20598;-81
2023/01/16 01:39:21;;;;;;;0.63;0.63;;;;;;;;;;6261904;28;20298;-81
2023/01/16 01:42:43;;;;;;;0.70;0.70;;;;;;;;;;6262179;28;20353;-82
2023/01/16 01:45:49;;;;;;;0.73;0.73;;;;;;;;;;6262078;28;20305;-80
2023/01/16 01:48:57;;;;;;;1.00;0.63;;;;;;;;;;6261185;28;20269;-81
2023/01/16 01:52:04;;;;;;;0.60;0.60;;;;;;;;;;6250527;28;20287;-81
2023/01/16 01:55:13;;;;;;;0.63;0.63;;;;;;;;;;6260899;28;20292;-81
2023/01/16 01:58:23;;;;;;;0.60;0.60;;;;;;;;;;6261552;28;20293;-80
2023/01/16 02:01:30;;;;;;;0.93;0.93;;;;;;;;;;6279265;28;20305;-81
2023/01/16 02:04:37;;;;;;;0.53;0.53;;;;;;;;;;6285353;28;20370;-82
2023/01/16 02:07:42;;;;;;;1.07;0.53;;;;;;;;;;6286277;28;20273;-81
2023/01/16 02:10:50;;;;;;;0.60;0.60;;;;;;;;;;6285665;28;20297;-81
2023/01/16 02:13:59;;;;;;;0.50;0.50;;;;;;;;;;6286899;28;20433;-82
2023/01/16 02:20:29;;;;;;;0.63;0.63;;;;;;;;;;6285447;28;20386;-81
2023/01/16 02:23:52;;;;;;;0.63;0.60;;;;;;;;;;6285818;28;20256;-81
2023/01/16 02:27:07;;;;;;;0.60;0.60;;;;;;;;;;6268855;28;20292;-81
2023/01/16 02:30:30;;;;;;;0.50;0.50;;;;;;;;;;6286448;28;20298;-82
2023/01/16 02:33:46;;;;;;;0.67;0.50;;;;;;;;;;6286264;28;20280;-82
2023/01/16 02:36:58;;;;;;;0.60;0.60;;;;;;;;;;6285264;28;20310;-81
2023/01/16 02:40:17;;;;;;;0.70;0.70;;;;;;;;;;6284660;28;20297;-82
2023/01/16 02:43:30;;;;;;;0.67;0.67;;;;;;;;;;6285314;28;20269;-82
2023/01/16 02:46:37;;;;;;;1.90;0.60;;;;;;;;;;6287889;28;20297;-83
2023/01/16 02:49:49;;;;;;;0.80;0.80;;;;;;;;;;6301925;28;20257;-82
2023/01/16 02:53:00;;;;;;;0.60;0.60;;;;;;;;;;6301610;28;20229;-82
2023/01/16 02:56:09;;;;;;;0.70;0.70;;;;;;;;;;6301900;28;20263;-82
2023/01/16 02:59:15;;;;;;;1.00;0.50;;;;;;;;;;6292693;28;20295;-82
2023/01/16 03:02:20;;;;;;;0.60;0.60;;;;;;;;;;6281984;28;20270;-81
2023/01/16 03:05:28;;;;;;;0.67;0.67;;;;;;;;;;6285749;28;20315;-82
2023/01/16 03:08:41;;;;;;;0.77;0.53;;;;;;;;;;6286933;28;20447;-83
2023/01/16 03:11:56;;;;;;;0.50;0.50;;;;;;;;;;6280062;28;20288;-82
2023/01/16 03:15:08;;;;;;;0.73;0.70;;;;;;;;;;6285268;28;20306;-81
2023/01/16 03:18:24;;;;;;;0.63;0.63;;;;;;;;;;6285396;28;20293;-83
2023/01/16 03:21:37;;;;;;;0.63;0.63;;;;;;;;;;6267685;28;20292;-83
2023/01/16 03:24:57;;;;;;;0.70;0.70;;;;;;;;;;6266736;28;20295;-82
2023/01/16 03:28:08;;;;;;;0.57;0.50;;;;;;;;;;6267511;28;20268;-82
2023/01/16 03:31:15;;;;;;;0.63;0.63;;;;;;;;;;6287743;28;20484;-82
2023/01/16 03:34:29;;;;;;;0.70;0.70;;;;;;;;;;6289029;28;20296;-81
2023/01/16 03:37:40;;;;;;;0.50;0.50;;;;;;;;;;6289335;28;20484;-82
2023/01/16 03:40:47;;;;;;;0.70;0.70;;;;;;;;;;6289345;28;20294;-82
2023/01/16 03:43:56;;;;;;;0.73;0.60;;;;;;;;;;6289923;28;20279;-82
2023/01/16 03:47:02;;;;;;;1.10;0.70;;;;;;;;;;6287769;28;20525;-82
2023/01/16 03:50:10;;;;;;;0.60;0.60;;;;;;;;;;6288743;28;20297;-82
2023/01/16 03:53:18;;;;;;;0.70;0.70;;;;;;;;;;6289505;28;20274;-82
2023/01/16 03:56:28;;;;;;;0.70;0.70;;;;;;;;;;6288768;28;20297;-80
2023/01/16 03:59:33;;;;;;;0.70;0.70;;;;;;;;;;6273664;28;20295;-81
2023/01/16 04:02:44;;;;;;;0.93;0.60;;;;;;;;;;6285987;28;20277;-82
2023/01/16 04:05:54;;;;;;;0.60;0.60;;;;;;;;;;6281112;28;20269;-83
2023/01/16 04:09:01;;;;;;;0.60;0.60;;;;;;;;;;6288824;28;20297;-83
2023/01/16 04:12:08;;;;;;;0.60;0.60;;;;;;;;;;6251208;28;20273;-82
2023/01/16 04:15:13;;;;;;;0.57;0.57;;;;;;;;;;6263532;28;20297;-82
2023/01/16 04:18:20;;;;;;;1.50;0.70;;;;;;;;;;6262946;28;20557;-82
2023/01/16 04:21:28;;;;;;;0.53;0.53;;;;;;;;;;6246503;28;20270;-82
2023/01/16 04:24:34;;;;;;;0.57;0.57;;;;;;;;;;6263253;28;20490;-82
2023/01/16 04:27:40;;;;;;;0.60;0.60;;;;;;;;;;6263322;28;20274;-81
2023/01/16 04:30:45;;;;;;;1.07;0.70;;;;;;;;;;6263509;28;20452;-83
2023/01/16 04:33:50;;;;;;;0.60;0.60;;;;;;;;;;6262886;28;20289;-82
2023/01/16 04:36:57;;;;;;;1.30;0.60;;;;;;;;;;6276796;28;20264;-81
2023/01/16 04:40:04;;;;;;;0.50;0.50;;;;;;;;;;6269674;28;20476;-82
2023/01/16 04:43:11;;;;;;;0.60;0.60;;;;;;;;;;6286072;28;20297;-82
2023/01/16 04:46:20;;;;;;;0.50;0.50;;;;;;;;;;6287577;28;20268;-82
2023/01/16 04:49:26;;;;;;;2.00;0.70;;;;;;;;;;6287152;28;20576;-81
2023/01/16 04:52:31;;;;;;;0.50;0.50;;;;;;;;;;6287270;28;20267;-80
2023/01/16 04:55:40;;;;;;;0.60;0.60;;;;;;;;;;6287800;28;20457;-83
2023/01/16 04:58:45;;;;;;;0.60;0.60;;;;;;;;;;6287411;28;20605;-82
2023/01/16 05:01:51;;;;;;;0.60;0.60;;;;;;;;;;6287291;28;20476;-80
2023/01/16 05:04:56;;;;;;;0.50;0.50;;;;;;;;;;6287030;28;20552;-82
2023/01/16 05:08:16;;;;;;;0.70;0.70;;;;;;;;;;6295795;28;20297;-81
2023/01/16 05:11:23;;;;;;;0.70;0.70;;;;;;;;;;6297410;28;20223;-81
2023/01/16 05:14:29;;;;;;;0.50;0.50;;;;;;;;;;6293646;28;20298;-81
2023/01/16 05:17:35;;;;;;;0.60;0.60;;;;;;;;;;6287857;28;20268;-82
2023/01/16 05:20:40;;;;;;;0.70;0.70;;;;;;;;;;6291518;28;20280;-84
2023/01/16 05:23:45;;;;;;;0.93;0.83;;;;;;;;;;6288465;28;20313;-82
2023/01/16 05:26:52;;;;;;;0.87;0.60;;;;;;;;;;6287858;28;20269;-82
2023/01/16 05:29:59;;;;;;;0.77;0.77;;;;;;;;;;6287039;28;20687;-82
2023/01/16 05:33:06;;;;;;;0.60;0.60;;;;;;;;;;6286819;28;20442;-82
2023/01/16 05:36:12;;;;;;;0.70;0.70;;;;;;;;;;6288423;28;20286;-83
2023/01/16 05:39:17;;;;;;;0.70;0.70;;;;;;;;;;6269627;28;20509;-82
2023/01/16 05:42:24;;;;;;;0.87;0.70;;;;;;;;;;6287386;28;20273;-81
2023/01/16 05:45:29;;;;;;;0.60;0.60;;;;;;;;;;6286096;28;20600;-81
2023/01/16 05:48:37;;;;;;;1.37;0.80;;;;;;;;;;6286342;28;20385;-82
2023/01/16 05:51:42;;;;;;;3.70;0.90;;;;;;;;;;6286775;28;20276;-83
2023/01/16 05:54:47;;;;;;;0.60;0.60;;;;;;;;;;6285919;28;20298;-84
2023/01/16 05:57:54;;;;;;;0.70;0.70;;;;;;;;;;6286042;28;20296;-82
2023/01/16 06:00:59;;;;;;;0.80;0.80;;;;;;;;;;6286050;28;20306;-82
2023/01/16 06:04:04;;;;;;;0.60;0.60;;;;;;;;;;6285331;28;20607;-82
2023/01/16 06:07:10;;;;;;;0.93;0.60;;;;;;;;;;6286347;28;20292;-82
2023/01/16 06:10:16;;;;;;;0.60;0.60;;;;;;;;;;6285666;28;20615;-82
2023/01/16 06:13:22;;;;;;;0.93;0.93;;;;;;;;;;6285488;28;20290;-81
2023/01/16 06:16:27;;;;;;;0.80;0.80;;;;;;;;;;6268939;28;20271;-83
2023/01/16 06:19:32;;;;;;;0.77;0.77;;;;;;;;;;6267765;28;20309;-84
2023/01/16 06:22:38;;;;;;;1.27;0.80;;;;;;;;;;6269083;28;20268;-84
2023/01/16 06:25:44;;;;;;;0.70;0.70;;;;;;;;;;6301334;28;20268;-82
2023/01/16 06:28:50;;;;;;;0.73;0.73;;;;;;;;;;6301747;28;20253;-82
2023/01/16 06:31:56;;;;;;;2.63;0.80;;;;;;;;;;6302119;28;20217;-82
2023/01/16 06:35:01;;;;;;;0.70;0.70;;;;;;;;;;6289272;28;20296;-82
2023/01/16 06:38:06;;;;;;;0.67;0.67;;;;;;;;;;6287749;28;20293;-81
2023/01/16 06:41:23;;;;;;;0.80;0.80;;;;;;;;;;6279623;28;20299;-81
2023/01/16 06:44:30;;;;;;;0.80;0.80;;;;;;;;;;6285661;28;20298;-82
2023/01/16 06:47:36;;;;;;;0.80;0.80;;;;;;;;;;6283637;28;20268;-83
2023/01/16 06:50:41;;;;;;;0.70;0.70;;;;;;;;;;6267568;28;20275;-83
2023/01/16 06:53:46;;;;;;;0.77;0.77;;;;;;;;;;6284614;28;20474;-82
2023/01/16 06:56:51;;;;;;;0.60;0.60;;;;;;;;;;6284873;28;20279;-82
2023/01/16 06:59:58;;;;;;;0.93;0.87;;;;;;;;;;6275786;28;20309;-81
2023/01/16 07:03:03;;;;;;;1.40;0.80;;;;;;;;;;6284643;28;20299;-82
2023/01/16 07:06:09;;;;;;;0.90;0.90;;;;;;;;;;6270611;28;20318;-81
2023/01/16 07:09:17;;;;;;;1.43;0.73;;;;;;;;;;6272848;28;20274;-80
2023/01/16 07:12:23;;;;;;;0.80;0.80;;;;;;;;;;6266174;28;20303;-80
2023/01/16 07:25:45;;;;;;;1.60;0.80;;;;;;;;;;6230106;28;20275;-82
2023/01/16 07:32:15;;;;;;;0.60;0.60;;;;;;;;;;6265467;28;20267;-83
2023/01/16 07:35:21;;;;;;;0.70;0.70;;;;;;;;;;6269601;28;20270;-83
2023/01/16 07:38:27;;;;;;;0.80;0.70;;;;;;;;;;6264493;28;20275;-81
2023/01/16 07:41:34;;;;;;;0.70;0.70;;;;;;;;;;6265552;28;20287;-82
2023/01/16 07:44:40;;;;;;;0.90;0.90;;;;;;;;;;6264427;28;20276;-83
2023/01/16 07:47:47;;;;;;;0.70;0.70;;;;;;;;;;6264113;28;20461;-82
2023/01/16 07:50:53;;;;;;;0.80;0.80;;;;;;;;;;6265441;28;20277;-81
2023/01/16 07:53:58;;;;;;;0.80;0.80;;;;;;;;;;6265123;28;20279;-82
2023/01/16 07:57:04;;;;;;;0.80;0.80;;;;;;;;;;6265374;28;20282;-82
2023/01/16 08:00:12;;;;;;;0.77;0.77;;;;;;;;;;6269853;28;20310;-81
2023/01/16 08:03:19;;;;;;;0.70;0.70;;;;;;;;;;6291589;28;20298;-81
2023/01/16 08:06:24;;;;;;;0.60;0.60;;;;;;;;;;6259644;28;20274;-81
2023/01/16 08:09:29;;;;;;;0.80;0.80;;;;;;;;;;6291311;28;20270;-80
2023/01/16 08:12:35;;;;;;;0.70;0.70;;;;;;;;;;6288922;28;20271;-82
2023/01/16 08:15:41;;;;;;;0.87;0.87;;;;;;;;;;6288755;28;20269;-81
2023/01/16 08:18:48;;;;;;;0.67;0.67;;;;;;;;;;6270943;28;20262;-82
2023/01/16 08:21:53;;;;;;;0.77;0.77;;;;;;;;;;6288921;28;20475;-82
2023/01/16 08:25:00;;;;;;;0.70;0.70;;;;;;;;;;6288900;28;20454;-82
2023/01/16 08:28:06;;;;;;;0.73;0.73;;;;;;;;;;6288311;28;20275;-82
2023/01/16 08:31:19;;;;;;;0.70;0.70;;;;;;;;;;6272715;28;20511;-82
2023/01/16 08:34:27;;;;;;;0.70;0.70;;;;;;;;;;6271598;28;20562;-81
2023/01/16 08:37:32;;;;;;;0.80;0.80;;;;;;;;;;6289590;28;20268;-80
2023/01/16 08:40:37;;;;;;;0.70;0.70;;;;;;;;;;6288682;28;20277;-80
2023/01/16 08:53:56;;;;;;;0.70;0.70;;;;;;;;;;6288266;28;20270;-82
2023/01/16 08:57:02;;;;;;;0.77;0.77;;;;;;;;;;6288044;28;20353;-81
2023/01/16 09:00:08;;;;;;;0.80;0.80;;;;;;;;;;6288320;28;20373;-81
2023/01/16 09:03:16;;;;;;;1.40;0.70;;;;;;;;;;6271154;28;20425;-81
2023/01/16 09:06:24;;;;;;;0.60;0.60;;;;;;;;;;6280428;28;20271;-81
2023/01/16 09:09:30;;;;;;;0.70;0.70;;;;;;;;;;6270951;28;20270;-81
2023/01/16 09:16:03;;;;;;;0.70;0.70;;;;;;;;;;6288824;28;20275;-81
2023/01/16 09:19:09;;;;;;;1.20;0.80;;;;;;;;;;6270260;28;20274;-81
2023/01/16 09:22:15;;;;;;;0.83;0.70;;;;;;;;;;6287531;28;20478;-81
2023/01/16 09:25:21;;;;;;;1.37;0.70;;;;;;;;;;6288013;28;20264;-81
2023/01/16 09:28:26;;;;;;;1.33;0.90;;;;;;;;;;6287138;28;20274;-81
2023/01/16 09:31:32;;;;;;;0.83;0.80;;;;;;;;;;6287535;28;20271;-82
2023/01/16 09:34:37;;;;;;;0.80;0.70;;;;;;;;;;6287346;28;20275;-82
2023/01/16 09:37:46;;;;;;;1.00;0.90;;;;;;;;;;6287126;28;20266;-81
2023/01/16 09:40:55;;;;;;;0.97;0.97;;;;;;;;;;6269727;28;20558;-82
2023/01/16 09:43:59;;;;;;;1.00;0.80;;;;;;;;;;6287298;28;20294;-80
2023/01/16 09:47:06;;;;;;;2.73;0.90;;;;;;;;;;6269804;28;20274;-81
2023/01/16 09:50:15;;;;;;;3.33;0.90;;;;;;;;;;6287349;28;20277;-82
2023/01/16 10:00:18;;;;;;;1.13;1.13;;;;;;;;;;6293822;28;20257;-81
2023/01/16 10:03:23;;;;;;;3.50;1.40;;;;;;;;;;6295498;28;20246;-80
2023/01/16 10:06:33;;;;;;;0.83;0.83;;;;;;;;;;6302931;28;20219;-80
2023/01/16 10:09:43;;;;;;;1.03;1.03;;;;;;;;;;6281470;28;20447;-81
2023/01/16 10:12:55;;;;;;;0.90;0.90;;;;;;;;;;6264335;28;20433;-82
2023/01/16 10:16:06;;;;;;;0.90;0.90;;;;;;;;;;6263260;28;20383;-81
2023/01/16 10:19:20;;;;;;;3.07;1.00;;;;;;;;;;6261246;28;20350;-82
2023/01/16 10:22:40;;;;;;;1.17;1.10;;;;;;;;;;6262456;28;20294;-82
2023/01/16 10:25:51;;;;;;;4.00;1.00;;;;;;;;;;6261537;28;20286;-82
2023/01/16 10:29:04;;;;;;;2.53;1.20;;;;;;;;;;6260781;28;20516;-81
2023/01/16 10:32:15;;;;;;;1.13;0.87;;;;;;;;;;6261416;28;20461;-81
2023/01/16 10:35:24;;;;;;;3.80;1.00;;;;;;;;;;6261794;28;20570;-81
2023/01/16 10:38:43;;;;;;;4.83;1.33;;;;;;;;;;6261605;28;20283;-82
2023/01/16 10:52:07;;;;;;;2.83;1.00;;;;;;;;;;6261543;28;20256;-81
2023/01/16 10:55:12;;;;;;;1.23;1.10;;;;;;;;;;6259995;28;20272;-82
2023/01/16 10:58:25;;;;;;;1.30;1.20;;;;;;;;;;6261861;28;20277;-81
2023/01/16 11:01:32;;;;;;;3.73;1.20;;;;;;;;;;6260334;28;20290;-82
2023/01/16 11:04:37;;;;;;;0.90;0.90;;;;;;;;;;6260982;28;20298;-82
2023/01/16 11:07:42;;;;;;;3.13;1.27;;;;;;;;;;6261093;28;20269;-82
2023/01/16 11:10:51;;;;;;;1.23;1.20;;;;;;;;;;6260321;28;20547;-82
2023/01/16 11:20:52;;;;;;;3.87;1.03;;;;;;;;;;6261076;28;20270;-81
2023/01/16 11:24:00;;;;;;;4.27;1.00;;;;;;;;;;6260809;28;20292;-82
2023/01/16 11:27:10;;;;;;;3.37;1.00;;;;;;;;;;6261243;28;20271;-82
2023/01/16 11:30:20;;;;;;;1.10;1.03;;;;;;;;;;6261435;28;20266;-81
2023/01/16 11:33:28;;;;;;;2.63;1.17;;;;;;;;;;6261601;28;20273;-81
2023/01/16 11:36:35;;;;;;;3.63;1.20;;;;;;;;;;6272551;28;20277;-80
2023/01/16 11:39:40;;;;;;;1.87;1.23;;;;;;;;;;6276683;28;20224;-81
2023/01/16 11:46:35;;;;;;;0.90;0.90;;;;;;;;;;6263448;28;20536;-83
2023/01/16 11:49:42;;;;;;;1.83;1.17;;;;;;;;;;6260474;28;20273;-84
2023/01/16 11:52:49;;;;;;;2.77;0.90;;;;;;;;;;6264744;28;20276;-84
2023/01/16 11:56:17;;;;;;;1.70;0.90;;;;;;;;;;6266035;28;20273;-84
2023/01/16 11:59:49;;;;;;;2.10;0.97;;;;;;;;;;6244959;28;20277;-82
2023/01/16 12:03:26;;;;;;;2.23;1.00;;;;;;;;;;6228241;28;20448;-82
2023/01/16 12:06:45;;;;;;;3.30;1.00;;;;;;;;;;6247683;28;20270;-82
2023/01/16 12:09:55;;;;;;;4.17;1.20;;;;;;;;;;6265485;28;20260;-82
2023/01/16 12:16:36;;;;;;;2.33;1.37;;;;;;;;;;6257929;28;20264;-82
2023/01/16 12:20:14;;;;;;;0.97;0.90;;;;;;;;;;6266413;28;20463;-82
2023/01/16 12:23:45;;;;;;;2.27;1.00;;;;;;;;;;6240430;28;20295;-82
2023/01/16 12:27:14;;;;;;;4.33;1.17;;;;;;;;;;6254872;28;20243;-79
2023/01/16 12:30:26;;;;;;;4.30;1.03;;;;;;;;;;6256476;28;20214;-81
2023/01/16 12:33:38;;;;;;;1.43;1.13;;;;;;;;;;6253435;28;20238;-76
2023/01/16 12:36:51;;;;;;;4.77;1.13;;;;;;;;;;6241951;28;20264;-81
2023/01/16 12:40:05;;;;;;;1.00;1.00;;;;;;;;;;6240475;28;20262;-78
2023/01/16 12:43:23;;;;;;;0.87;0.87;;;;;;;;;;6222584;28;20278;-81
2023/01/16 12:46:36;;;;;;;1.37;1.10;;;;;;;;;;6239725;28;20273;-80
2023/01/16 12:49:52;;;;;;;2.37;1.00;;;;;;;;;;6222946;28;20277;-81
2023/01/16 12:53:16;;;;;;;4.93;1.30;;;;;;;;;;6239614;28;20274;-81
2023/01/16 12:56:35;;;;;;;3.90;1.13;;;;;;;;;;6240614;28;20593;-82
2023/01/16 12:59:43;;;;;;;6.33;1.20;;;;;;;;;;6241555;28;20273;-80
2023/01/16 13:02:52;;;;;;;5.27;1.10;;;;;;;;;;6239721;28;20302;-80
2023/01/16 13:05:58;;;;;;;2.33;1.40;;;;;;;;;;6238820;28;20285;-81
2023/01/16 13:09:09;;;;;;;3.53;1.10;;;;;;;;;;6238432;28;20274;-82
2023/01/16 13:15:45;;;;;;;2.33;1.67;;;;;;;;;;6263829;28;20279;-81
2023/01/16 13:18:53;;;;;;;1.43;1.20;;;;;;;;;;6264298;28;20278;-81
2023/01/16 13:22:03;;;;;;;8.07;1.10;;;;;;;;;;6266346;28;20273;-82
2023/01/16 13:25:16;;;;;;;2.57;1.33;;;;;;;;;;6265384;28;20299;-81
2023/01/16 13:28:30;;;;;;;10.87;1.60;;;;;;;;;;6263392;28;20271;-80
2023/01/16 13:31:38;;;;;;;2.80;1.40;;;;;;;;;;6262678;28;20269;-82
2023/01/16 13:34:45;;;;;;;5.33;1.30;;;;;;;;;;6262812;28;20279;-81
2023/01/16 13:38:12;;;;;;;1.87;1.33;;;;;;;;;;6262517;28;20454;-81
2023/01/16 13:41:20;;;;;;;7.60;1.43;;;;;;;;;;6246836;28;20274;-81
2023/01/16 13:47:54;;;;;;;3.53;1.40;;;;;;;;;;6228420;28;20273;-80
2023/01/16 13:51:02;;;;;;;3.43;1.30;;;;;;;;;;6228767;28;20456;-81
2023/01/16 13:54:13;;;;;;;5.93;1.60;;;;;;;;;;6262617;28;20580;-81
2023/01/16 13:57:20;;;;;;;10.70;1.93;;;;;;;;;;6261578;28;20288;-81
2023/01/16 14:00:30;;;;;;;3.40;1.50;;;;;;;;;;6266593;28;20306;-81
2023/01/16 14:03:36;;;;;;;3.80;1.33;;;;;;;;;;6267829;28;20276;-80
2023/01/16 14:06:47;;;;;;;7.40;1.27;;;;;;;;;;6286440;28;20268;-82
2023/01/16 14:10:24;;;;;;;2.80;1.27;;;;;;;;;;6283193;28;20259;-81
2023/01/16 14:13:37;;;;;;;8.67;1.60;;;;;;;;;;6194874;28;20274;-81
2023/01/16 14:16:43;;;;;;;7.60;1.60;;;;;;;;;;6243696;28;20291;-81
2023/01/16 14:20:00;;;;;;;6.30;1.93;;;;;;;;;;6261803;28;20378;-81
2023/01/16 14:26:43;;;;;;;8.23;1.70;;;;;;;;;;6237948;28;20440;-80
2023/01/16 14:29:52;;;;;;;8.93;2.10;;;;;;;;;;6261591;28;20446;-80
2023/01/16 14:33:00;;;;;;;8.13;1.87;;;;;;;;;;6261841;28;20560;-79
2023/01/16 14:36:16;;;;;;;9.90;1.93;;;;;;;;;;6261075;28;20265;-81
2023/01/16 14:39:33;;;;;;;6.77;1.67;;;;;;;;;;6262916;28;20277;-81
2023/01/16 14:56:58;;;;;;;3.37;1.93;;;;;;;;;;6260974;28;20280;-81
2023/01/16 15:00:08;;;;;;;8.97;2.30;;;;;;;;;;6259870;28;20275;-81
2023/01/16 15:03:17;;;;;;;14.13;2.80;;;;;;;;;;6236682;28;20284;-80
2023/01/16 15:06:24;;;;;;;4.80;2.00;;;;;;;;;;6236061;28;20299;-82
2023/01/16 15:09:31;;;;;;;5.93;1.93;;;;;;;;;;6235912;28;20273;-81
2023/01/16 15:12:41;;;;;;;9.77;2.20;;;;;;;;;;6255100;28;20267;-82
2023/01/16 15:15:50;;;;;;;8.93;1.90;;;;;;;;;;6260708;28;20268;-81
2023/01/16 15:22:24;;;;;;;7.70;1.90;;;;;;;;;;6204790;28;20552;-81
2023/01/16 15:25:47;;;;;;;9.20;1.90;;;;;;;;;;6260325;28;20286;-80
2023/01/16 15:29:07;;;;;;;9.03;1.80;;;;;;;;;;6247705;28;20278;-80
2023/01/16 15:32:17;;;;;;;5.37;1.97;;;;;;;;;;6265521;28;20455;-81
2023/01/16 15:35:24;;;;;;;8.73;1.87;;;;;;;;;;6258132;28;20445;-80
2023/01/16 15:38:36;;;;;;;10.57;2.13;;;;;;;;;;6264860;28;20284;-81
2023/01/16 15:48:48;;;;;;;4.27;1.93;;;;;;;;;;6264300;28;20307;-81
2023/01/16 15:52:07;;;;;;;9.93;2.23;;;;;;;;;;6264631;28;20540;-81
2023/01/16 15:55:19;;;;;;;8.90;2.33;;;;;;;;;;6264883;28;20269;-81
2023/01/16 15:58:25;;;;;;;10.80;2.40;;;;;;;;;;6264603;28;20264;-82
2023/01/16 16:01:32;;;;;;;15.80;2.90;;;;;;;;;;6277683;28;20302;-82
2023/01/16 16:04:37;;;;;;;6.07;2.00;;;;;;;;;;6289472;28;20278;-82
2023/01/16 16:07:42;;;;;;;7.30;2.40;;;;;;;;;;6288836;28;20288;-81
2023/01/16 16:18:02;;;;;;;6.13;2.37;;;;;;;;;;6246422;28;20280;-81
2023/01/16 16:21:08;;;;;;;12.10;2.37;;;;;;;;;;6265249;28;20458;-81
2023/01/16 16:24:14;;;;;;;7.03;1.90;;;;;;;;;;6246719;28;20273;-81
2023/01/16 16:27:22;;;;;;;7.20;1.93;;;;;;;;;;6263547;28;20289;-81
2023/01/16 16:30:28;;;;;;;9.23;2.13;;;;;;;;;;6263999;28;20288;-81
2023/01/16 16:33:35;;;;;;;7.97;2.10;;;;;;;;;;6263784;28;20353;-83
2023/01/16 16:36:44;;;;;;;6.87;2.27;;;;;;;;;;6263199;28;20272;-81
2023/01/16 16:39:54;;;;;;;6.67;2.10;;;;;;;;;;6229652;28;20279;-81
2023/01/16 16:43:01;;;;;;;13.50;2.30;;;;;;;;;;6264518;28;20269;-82
2023/01/16 16:46:31;;;;;;;6.87;2.30;;;;;;;;;;6263409;28;20299;-81
2023/01/16 16:49:37;;;;;;;4.77;2.10;;;;;;;;;;6263747;28;20275;-80
2023/01/16 16:52:46;;;;;;;9.77;2.23;;;;;;;;;;6257557;28;20275;-80
2023/01/16 16:55:53;;;;;;;5.63;1.87;;;;;;;;;;6246240;28;20275;-81
2023/01/16 16:59:00;;;;;;;7.33;2.10;;;;;;;;;;6263561;28;20278;-81
2023/01/16 17:02:14;;;;;;;9.60;2.40;;;;;;;;;;6282229;28;20299;-82
2023/01/16 17:05:19;;;;;;;4.53;2.00;;;;;;;;;;6287852;28;20274;-81
2023/01/16 17:08:27;;;;;;;7.87;2.30;;;;;;;;;;6287663;28;20461;-81
2023/01/16 17:11:32;;;;;;;8.73;2.30;;;;;;;;;;6281227;28;20267;-80
2023/01/16 17:14:42;;;;;;;8.97;2.00;;;;;;;;;;6291480;28;20272;-81
2023/01/16 17:17:56;;;;;;;12.23;2.07;;;;;;;;;;6291081;28;20278;-82
2023/01/16 17:21:01;;;;;;;10.53;2.40;;;;;;;;;;6287968;28;20457;-80
2023/01/16 17:24:08;;;;;;;8.87;2.40;;;;;;;;;;6286824;28;20274;-77
2023/01/16 17:27:14;;;;;;;7.03;2.33;;;;;;;;;;6287153;28;20474;-80
2023/01/16 17:30:23;;;;;;;9.73;2.47;;;;;;;;;;6287564;28;20340;-80
2023/01/16 17:33:30;;;;;;;9.87;2.10;;;;;;;;;;6287854;28;20545;-82
2023/01/16 17:36:35;;;;;;;11.93;2.20;;;;;;;;;;6287303;28;20275;-80
2023/01/16 17:39:40;;;;;;;7.43;2.10;;;;;;;;;;6287909;28;20263;-81
2023/01/16 17:46:12;;;;;;;5.90;1.90;;;;;;;;;;6269637;28;20287;-81
2023/01/16 17:49:17;;;;;;;4.10;2.37;;;;;;;;;;6286867;28;20266;-83
2023/01/16 17:52:22;;;;;;;6.50;2.13;;;;;;;;;;6288083;28;20279;-80
2023/01/16 17:58:53;;;;;;;12.70;2.60;;;;;;;;;;6287886;28;20271;-81
2023/01/16 18:02:02;;;;;;;10.00;2.13;;;;;;;;;;6270962;28;20296;-82
2023/01/16 18:05:09;;;;;;;3.13;2.20;;;;;;;;;;6293278;28;20263;-81
2023/01/16 18:08:15;;;;;;;4.93;2.23;;;;;;;;;;6303029;28;20246;-81
2023/01/16 18:18:13;;;;;;;6.83;2.67;;;;;;;;;;6289609;28;20346;-83
2023/01/16 18:24:43;;;;;;;5.37;2.00;;;;;;;;;;6283934;28;20292;-80
2023/01/16 18:27:48;;;;;;;8.57;2.00;;;;;;;;;;6285967;28;20292;-83
2023/01/16 18:30:53;;;;;;;5.17;2.00;;;;;;;;;;6302713;28;20240;-81
2023/01/16 18:34:00;;;;;;;6.23;1.83;;;;;;;;;;6262327;28;20288;-82
2023/01/16 18:37:06;;;;;;;2.73;1.93;;;;;;;;;;6290383;28;20279;-78
2023/01/16 19:04:01;;;;;;;6.07;1.97;;;;;;;;;;6273526;28;20298;-77
2023/01/16 19:07:10;;;;;;;1.70;1.60;;;;;;;;;;6291384;28;20597;-84
2023/01/16 19:10:18;;;;;;;7.50;1.90;;;;;;;;;;6272952;28;20294;-78
2023/01/16 19:13:36;;;;;;;4.67;2.00;;;;;;;;;;6290264;28;20294;-80
2023/01/16 19:16:47;;;;;;;8.83;2.23;;;;;;;;;;6290422;28;20266;-82
2023/01/16 19:20:31;;;;;;;6.87;1.90;;;;;;;;;;6289380;28;20284;-80
2023/01/16 19:23:38;;;;;;;4.77;1.83;;;;;;;;;;6289718;28;20294;-78
2023/01/16 19:26:45;;;;;;;3.23;1.77;;;;;;;;;;6289731;28;20274;-79
2023/01/16 19:29:50;;;;;;;5.33;2.23;;;;;;;;;;6289523;28;20302;-78
2023/01/16 19:32:56;;;;;;;10.90;2.43;;;;;;;;;;6289061;28;20269;-80
2023/01/16 19:36:01;;;;;;;5.37;2.00;;;;;;;;;;6289246;28;20461;-77
2023/01/16 19:39:09;;;;;;;4.57;1.90;;;;;;;;;;6290001;28;20582;-81
2023/01/16 19:49:00;;;;;;;5.37;2.10;;;;;;;;;;6288913;28;20601;-78
2023/01/16 19:52:06;;;;;;;3.83;1.93;;;;;;;;;;6272704;28;20279;-77
2023/01/16 19:55:16;;;;;;;7.17;2.50;;;;;;;;;;6289997;28;20302;-79
2023/01/16 19:58:21;;;;;;;5.17;1.90;;;;;;;;;;6274400;28;20293;-81
2023/01/16 20:01:27;;;;;;;1.97;1.70;;;;;;;;;;6274048;28;20498;-78
2023/01/16 20:04:34;;;;;;;3.47;1.90;;;;;;;;;;6289306;28;20295;-79
2023/01/16 20:07:39;;;;;;;7.17;2.10;;;;;;;;;;6272930;28;20291;-79
2023/01/16 20:10:46;;;;;;;8.60;2.10;;;;;;;;;;6291399;28;20311;-80
2023/01/16 20:13:54;;;;;;;6.07;2.37;;;;;;;;;;6288716;28;20302;-79
2023/01/16 20:16:59;;;;;;;3.80;2.07;;;;;;;;;;6290742;28;20302;-79
2023/01/16 20:20:05;;;;;;;4.93;2.20;;;;;;;;;;6288882;28;20302;-79
2023/01/16 20:23:11;;;;;;;5.90;2.17;;;;;;;;;;6288866;28;20271;-79
2023/01/16 20:26:18;;;;;;;11.90;2.00;;;;;;;;;;6272279;28;20270;-78
2023/01/16 20:29:24;;;;;;;4.17;1.93;;;;;;;;;;6280805;28;20318;-82
2023/01/16 20:32:29;;;;;;;4.33;2.00;;;;;;;;;;6288845;28;20298;-77
2023/01/16 20:35:34;;;;;;;5.10;1.90;;;;;;;;;;6288184;28;20300;-80
2023/01/16 20:38:40;;;;;;;8.17;2.20;;;;;;;;;;6287889;28;20310;-80
2023/01/16 20:48:34;;;;;;;6.53;2.20;;;;;;;;;;6287551;28;20293;-79
2023/01/16 20:51:39;;;;;;;6.00;2.00;;;;;;;;;;6287927;28;20272;-79
2023/01/16 20:54:45;;;;;;;6.53;2.27;;;;;;;;;;6288164;28;20293;-84
2023/01/16 20:57:51;;;;;;;4.60;1.90;;;;;;;;;;6288005;28;20274;-78
2023/01/16 21:01:00;;;;;;;3.47;2.20;;;;;;;;;;6268634;28;20602;-77
2023/01/16 21:04:07;;;;;;;5.87;1.70;;;;;;;;;;6287109;28;20298;-82
2023/01/16 21:07:12;;;;;;;6.10;1.80;;;;;;;;;;6288124;28;20274;-83
2023/01/16 21:10:18;;;;;;;5.60;1.87;;;;;;;;;;6280949;28;20295;-84
2023/01/16 21:23:37;;;;;;;3.90;2.37;;;;;;;;;;6302242;28;20285;-80
2023/01/16 21:26:42;;;;;;;6.63;2.40;;;;;;;;;;6302657;28;20326;-78
2023/01/16 21:29:48;;;;;;;7.80;3.23;;;;;;;;;;6302783;28;20291;-80
2023/01/16 21:32:55;;;;;;;10.53;3.00;;;;;;;;;;6300644;28;20246;-77
2023/01/16 21:36:06;;;;;;;4.70;2.53;;;;;;;;;;6261335;28;20366;-82
2023/01/16 21:39:12;;;;;;;3.73;2.67;;;;;;;;;;6287783;28;20296;-80